Time;durP1;ratioP1;P1;durP2;ratioP2;P2;SDS_P1;SDS_P2;PMS_P1;PMS_P2;Temp;Humidity;BMP_temperature;BMP_pressure;BME280_temperature;BME280_humidity;BME280_pressure;Samples;Min_cycle;Max_cycle;Signal;HPM_P1;HPM_P2
2023/09/21 00:02:55;;;;;;;;;;;;;;;23.39;51.62;94924.13;10338508;28;1899;-61
2023/09/21 00:07:57;;;;;;;;;;;;;;;23.39;51.56;94927.56;10340518;28;1954;-62
2023/09/21 00:13:00;;;;;;;;;;;;;;;23.38;51.50;94912.78;10341325;28;1881;-61
2023/09/21 00:18:01;;;;;;;;;;;;;;;23.38;51.24;94904.06;10336841;28;1889;-61
2023/09/21 00:23:05;;;;;;;;;;;;;;;23.37;51.51;94892.72;10341970;28;2659;-61
2023/09/21 00:28:11;;;;;;;;;;;;;;;23.36;51.33;94883.25;10315874;28;2147;-61
2023/09/21 00:33:11;;;;;;;;;;;;;;;23.36;51.30;94885.09;10343446;28;1841;-61
2023/09/21 00:38:14;;;;;;;;;;;;;;;23.35;51.46;94886.97;10325176;28;1894;-61
2023/09/21 00:43:20;;;;;;;;;;;;;;;23.36;51.46;94879.81;10332049;28;4804;-61
2023/09/21 00:48:25;;;;;;;;;;;;;;;23.35;51.26;94873.72;10344155;28;1903;-60
2023/09/21 00:53:27;;;;;;;;;;;;;;;;;;10338772;28;1920;-62
2023/09/21 00:58:29;;;;;;;;;;;;;;;23.35;51.23;94868.44;10338855;28;2145;-61
2023/09/21 01:03:29;;;;;;;;;;;;;;;23.35;51.45;94865.81;10342577;28;2070;-61
2023/09/21 01:08:33;;;;;;;;;;;;;;;23.33;51.45;94859.25;10337623;28;1945;-61
2023/09/21 01:13:35;;;;;;;;;;;;;;;23.34;51.32;94858.19;10334869;28;1914;-61
2023/09/21 01:18:36;;;;;;;;;;;;;;;23.35;51.44;94854.44;10317350;28;2037;-61
2023/09/21 01:23:36;;;;;;;;;;;;;;;23.35;51.23;94846.50;10343758;28;2637;-61
2023/09/21 01:28:37;;;;;;;;;;;;;;;23.34;51.43;94847.59;10338972;28;1930;-61
2023/09/21 01:33:38;;;;;;;;;;;;;;;23.34;51.20;94834.38;10347022;28;1880;-61
2023/09/21 01:38:38;;;;;;;;;;;;;;;;;;10344601;28;2028;-61
2023/09/21 01:43:38;;;;;;;;;;;;;;;23.32;51.35;94821.47;10341150;28;4774;-61
2023/09/21 01:48:38;;;;;;;;;;;;;;;23.33;51.20;94809.03;10339415;28;2023;-61
2023/09/21 01:53:39;;;;;;;;;;;;;;;23.33;51.27;94809.03;10342361;28;2036;-61
2023/09/21 01:58:39;;;;;;;;;;;;;;;23.32;51.31;94797.69;10336750;28;2237;-61
2023/09/21 02:03:39;;;;;;;;;;;;;;;23.33;51.46;94801.09;10337328;28;1990;-61
2023/09/21 02:08:39;;;;;;;;;;;;;;;23.33;51.18;94793.16;10341778;28;2567;-62
2023/09/21 02:13:40;;;;;;;;;;;;;;;23.32;51.20;94792.41;10335080;28;2109;-62
2023/09/21 02:18:40;;;;;;;;;;;;;;;23.33;51.17;94790.50;10337646;28;1996;-62
2023/09/21 02:23:40;;;;;;;;;;;;;;;23.32;51.24;94784.47;10344543;28;1922;-62
2023/09/21 02:28:40;;;;;;;;;;;;;;;23.31;51.20;94776.78;10345808;28;2013;-62
2023/09/21 02:33:42;;;;;;;;;;;;;;;23.30;51.26;94776.03;10339558;28;2071;-62
2023/09/21 02:38:42;;;;;;;;;;;;;;;23.30;51.09;94769.97;10342955;28;1935;-62
2023/09/21 02:43:43;;;;;;;;;;;;;;;23.31;51.04;94766.22;10345992;28;4767;-62
2023/09/21 02:48:43;;;;;;;;;;;;;;;23.31;51.11;94771.50;10343186;28;1937;-62
2023/09/21 02:53:43;;;;;;;;;;;;;;;23.29;51.14;94766.53;10353400;28;2634;-61
2023/09/21 02:58:44;;;;;;;;;;;;;;;23.29;51.23;94755.97;10336370;28;2065;-62
2023/09/21 03:03:45;;;;;;;;;;;;;;;23.30;51.12;94748.81;10360943;28;1957;-62
2023/09/21 03:08:48;;;;;;;;;;;;;;;23.28;50.92;94746.50;10342587;28;1973;-62
2023/09/21 03:13:48;;;;;;;;;;;;;;;23.28;51.10;94743.84;10331864;28;1962;-61
2023/09/21 03:18:49;;;;;;;;;;;;;;;23.28;51.28;94737.78;10349342;28;2078;-62
2023/09/21 03:23:52;;;;;;;;;;;;;;;23.28;51.12;94737.78;10341587;28;1947;-62
2023/09/21 03:28:53;;;;;;;;;;;;;;;23.27;51.14;94725.63;10347259;28;1911;-62
2023/09/21 03:33:53;;;;;;;;;;;;;;;23.27;51.15;94728.28;10346801;28;1977;-62
2023/09/21 03:38:54;;;;;;;;;;;;;;;23.26;51.20;94721.44;10346463;28;2811;-62
2023/09/21 03:43:54;;;;;;;;;;;;;;;23.26;51.10;94721.44;10341853;28;4652;-62
2023/09/21 03:48:56;;;;;;;;;;;;;;;23.25;50.99;94725.94;10348233;28;2141;-62
2023/09/21 03:53:59;;;;;;;;;;;;;;;23.25;51.08;94709.31;10349885;28;1971;-62
2023/09/21 03:59:00;;;;;;;;;;;;;;;23.25;51.29;94704.78;10345754;28;2074;-61
2023/09/21 04:04:05;;;;;;;;;;;;;;;23.24;50.88;94695.31;10347151;28;2164;-62
2023/09/21 04:09:06;;;;;;;;;;;;;;;23.23;51.17;94683.19;10350424;28;1987;-62
2023/09/21 04:14:06;;;;;;;;;;;;;;;23.21;50.82;94682.72;10340926;28;2089;-62
2023/09/21 04:19:10;;;;;;;;;;;;;;;23.22;51.11;94680.88;10340843;28;2023;-61
2023/09/21 04:24:10;;;;;;;;;;;;;;;23.22;51.06;94694.09;10351246;28;2633;-62
2023/09/21 04:29:15;;;;;;;;;;;;;;;23.19;51.12;94686.78;10342038;28;2015;-62
2023/09/21 04:34:16;;;;;;;;;;;;;;;23.20;50.84;94690.97;10339365;28;1926;-62
2023/09/21 04:39:17;;;;;;;;;;;;;;;23.19;50.79;94684.91;10351190;28;1923;-62
2023/09/21 04:44:17;;;;;;;;;;;;;;;23.18;50.96;94682.59;10342791;28;4596;-62
2023/09/21 04:49:18;;;;;;;;;;;;;;;23.18;50.88;94677.31;10343972;28;1981;-61
2023/09/21 04:54:21;;;;;;;;;;;;;;;23.16;50.96;94680.25;10343083;28;1840;-62
2023/09/21 04:59:24;;;;;;;;;;;;;;;23.16;50.86;94677.59;10357695;28;1954;-62
2023/09/21 05:04:26;;;;;;;;;;;;;;;23.16;50.66;94687.41;10341234;28;2153;-62
2023/09/21 05:09:26;;;;;;;;;;;;;;;23.15;50.68;94675.28;10315565;28;2689;-62
2023/09/21 05:14:26;;;;;;;;;;;;;;;23.15;50.89;94678.69;10335913;28;1879;-62
2023/09/21 05:19:27;;;;;;;;;;;;;;;23.14;50.53;94676.38;10354014;28;1892;-62
2023/09/21 05:24:27;;;;;;;;;;;;;;;23.14;50.81;94673.75;10337658;28;2268;-62
2023/09/21 05:29:28;;;;;;;;;;;;;;;23.13;50.94;94664.25;10345500;28;2067;-62
2023/09/21 05:34:28;;;;;;;;;;;;;;;23.13;50.70;94662.38;10341692;28;1978;-62
2023/09/21 05:39:28;;;;;;;;;;;;;;;23.15;50.57;94672.63;10338215;28;1983;-62
2023/09/21 05:44:28;;;;;;;;;;;;;;;23.14;50.76;94666.56;10328969;28;4594;-62
2023/09/21 05:49:31;;;;;;;;;;;;;;;23.16;50.50;94655.69;10347202;28;1930;-62
2023/09/21 05:54:31;;;;;;;;;;;;;;;23.14;50.59;94666.56;10337839;28;2672;-62
2023/09/21 05:59:31;;;;;;;;;;;;;;;23.14;50.70;94660.53;10344436;28;1850;-62
2023/09/21 06:04:34;;;;;;;;;;;;;;;23.13;50.44;94665.03;10366236;28;1818;-61
2023/09/21 06:09:34;;;;;;;;;;;;;;;23.14;50.60;94663.16;10348175;28;1914;-61
2023/09/21 06:14:36;;;;;;;;;;;;;;;23.14;50.80;94663.16;10360874;28;2036;-61
2023/09/21 06:19:38;;;;;;;;;;;;;;;23.15;50.65;94656.78;10356739;28;1861;-60
2023/09/21 06:24:39;;;;;;;;;;;;;;;23.15;50.79;94656.78;10353259;28;1955;-60
2023/09/21 06:29:40;;;;;;;;;;;;;;;23.15;50.80;94648.84;10349322;28;1910;-60
2023/09/21 06:34:43;;;;;;;;;;;;;;;23.16;50.63;94639.84;10357809;28;1917;-60
2023/09/21 06:39:43;;;;;;;;;;;;;;;23.16;50.90;94632.66;10355298;28;2704;-60
2023/09/21 06:44:43;;;;;;;;;;;;;;;23.16;50.58;94630.00;10358042;28;4591;-62
2023/09/21 06:49:44;;;;;;;;;;;;;;;23.17;50.71;94623.66;10358606;28;1980;-62
2023/09/21 06:54:45;;;;;;;;;;;;;;;23.18;50.73;94619.91;10357172;28;1892;-62
2023/09/21 06:59:45;;;;;;;;;;;;;;;23.18;50.67;94625.22;10361029;28;1889;-62
2023/09/21 07:04:46;;;;;;;;;;;;;;;23.19;50.64;94625.97;10354729;28;1809;-61
2023/09/21 07:09:46;;;;;;;;;;;;;;;23.14;50.11;94605.00;10352186;28;1966;-61
2023/09/21 07:14:49;;;;;;;;;;;;;;;23.07;49.94;94612.63;10346835;28;1874;-61
2023/09/21 07:19:50;;;;;;;;;;;;;;;23.01;50.05;94608.63;10351938;28;2260;-63
2023/09/21 07:24:50;;;;;;;;;;;;;;;22.97;50.00;94607.69;10329996;28;2520;-63
2023/09/21 07:29:53;;;;;;;;;;;;;;;22.96;50.17;94603.50;10352560;28;1910;-63
2023/09/21 07:34:53;;;;;;;;;;;;;;;22.95;49.88;94594.03;10347291;28;1933;-62
2023/09/21 07:39:53;;;;;;;;;;;;;;;22.95;50.36;94588.75;10329831;28;4497;-62
2023/09/21 07:44:53;;;;;;;;;;;;;;;22.97;50.13;94597.91;10356992;28;1891;-62
2023/09/21 07:49:55;;;;;;;;;;;;;;;22.98;50.36;94596.03;10355303;28;1989;-63
2023/09/21 07:54:56;;;;;;;;;;;;;;;22.99;50.36;94590.44;10353827;28;1798;-62
2023/09/21 07:59:56;;;;;;;;;;;;;;;23.01;50.19;94590.13;10371124;28;1905;-62
2023/09/21 08:04:57;;;;;;;;;;;;;;;23.03;50.25;94599.28;10338611;28;1833;-64
2023/09/21 08:09:57;;;;;;;;;;;;;;;23.06;50.37;94605.81;10355267;28;1914;-62
2023/09/21 08:14:58;;;;;;;;;;;;;;;23.07;50.44;94602.84;10341700;28;2793;-62
2023/09/21 08:19:58;;;;;;;;;;;;;;;23.09;50.19;94597.22;10353508;28;1845;-62
2023/09/21 08:24:58;;;;;;;;;;;;;;;23.08;49.98;94593.81;10335849;28;1926;-62
2023/09/21 08:29:58;;;;;;;;;;;;;;;23.08;49.88;94593.81;10324181;28;1977;-62
2023/09/21 08:34:59;;;;;;;;;;;;;;;23.10;49.37;94586.34;10359367;28;1877;-62
2023/09/21 08:39:59;;;;;;;;;;;;;;;23.10;48.93;94585.59;10348774;28;4596;-62
2023/09/21 08:44:59;;;;;;;;;;;;;;;23.12;48.87;94583.41;10341671;28;1945;-62
2023/09/21 08:50:01;;;;;;;;;;;;;;;23.13;47.77;94592.88;10340605;28;1898;-62
2023/09/21 08:55:01;;;;;;;;;;;;;;;23.11;47.90;94582.63;10343875;28;1869;-62
2023/09/21 09:00:08;;;;;;;;;;;;;;;23.11;47.96;94571.25;10337319;28;2667;-62
2023/09/21 09:05:09;;;;;;;;;;;;;;;23.12;47.36;94559.59;10342345;28;1864;-62
2023/09/21 09:10:11;;;;;;;;;;;;;;;23.14;47.63;94557.41;10346287;28;1971;-62
2023/09/21 09:15:14;;;;;;;;;;;;;;;23.18;47.20;94542.47;10347162;28;1970;-62
2023/09/21 09:20:16;;;;;;;;;;;;;;;23.17;46.54;94535.63;10330164;28;1832;-60
2023/09/21 09:25:17;;;;;;;;;;;;;;;23.16;47.88;94532.19;10344069;28;1938;-61
2023/09/21 09:30:20;;;;;;;;;;;;;;;23.19;46.82;94530.78;10324081;28;1937;-61
2023/09/21 09:35:21;;;;;;;;;;;;;;;23.23;46.71;94521.13;10351756;28;1825;-61
2023/09/21 09:40:24;;;;;;;;;;;;;;;23.21;47.51;94518.03;10366238;28;4596;-61
2023/09/21 09:45:24;;;;;;;;;;;;;;;23.21;47.64;94507.44;10352224;28;2420;-61
2023/09/21 09:50:25;;;;;;;;;;;;;;;23.24;47.37;94510.25;10356253;28;1873;-61
2023/09/21 09:55:25;;;;;;;;;;;;;;;23.23;47.81;94510.56;10358705;28;1798;-61
2023/09/21 10:00:29;;;;;;;;;;;;;;;23.31;46.68;94507.09;10349678;28;1930;-62
2023/09/21 10:05:29;;;;;;;;;;;;;;;23.29;47.40;94498.69;10369339;28;2039;-60
2023/09/21 10:10:42;;;;;;;;;;;;;;;23.31;47.22;94492.00;10368044;28;1877;-62
2023/09/21 10:15:43;;;;;;;;;;;;;;;23.39;47.06;94487.78;10365323;28;1904;-61
2023/09/21 10:20:44;;;;;;;;;;;;;;;23.37;47.04;94487.31;10323243;28;2185;-62
2023/09/21 10:25:45;;;;;;;;;;;;;;;23.42;47.61;94481.84;10359058;28;1907;-64
2023/09/21 10:30:45;;;;;;;;;;;;;;;23.44;47.65;94471.72;10334008;28;2558;-63
2023/09/21 10:35:45;;;;;;;;;;;;;;;23.49;47.62;94466.25;10342738;28;1940;-63
2023/09/21 10:40:46;;;;;;;;;;;;;;;23.51;47.26;94461.41;10352549;28;4653;-62
2023/09/21 10:45:59;;;;;;;;;;;;;;;23.50;47.48;94445.84;10353863;28;1919;-63
2023/09/21 10:50:59;;;;;;;;;;;;;;;23.53;47.13;94443.34;10342316;28;1897;-63
2023/09/21 10:55:59;;;;;;;;;;;;;;;23.52;47.38;94433.09;10342534;28;1942;-63
2023/09/21 11:01:00;;;;;;;;;;;;;;;23.63;47.02;94429.75;10352298;28;1853;-63
2023/09/21 11:06:00;;;;;;;;;;;;;;;23.58;47.21;94421.22;10336569;28;1971;-62
2023/09/21 11:11:02;;;;;;;;;;;;;;;23.55;47.43;94417.34;10339100;28;1802;-62
2023/09/21 11:16:04;;;;;;;;;;;;;;;23.56;47.07;94399.59;10346030;28;2067;-63
2023/09/21 11:21:04;;;;;;;;;;;;;;;23.55;47.29;94398.84;10344709;28;1889;-63
2023/09/21 11:26:10;;;;;;;;;;;;;;;23.56;47.24;94394.31;10361425;28;1910;-63
2023/09/21 11:31:14;;;;;;;;;;;;;;;23.56;47.41;94389.78;10353085;28;2507;-63
2023/09/21 11:36:15;;;;;;;;;;;;;;;23.56;47.53;94373.16;10333882;28;1893;-63
2023/09/21 11:41:16;;;;;;;;;;;;;;;23.56;47.29;94360.69;10341070;28;4633;-63
2023/09/21 11:46:16;;;;;;;;;;;;;;;23.55;47.46;94353.88;10317625;28;2051;-63
2023/09/21 11:51:17;;;;;;;;;;;;;;;23.55;47.01;94348.59;10336911;28;1939;-62
2023/09/21 11:56:18;;;;;;;;;;;;;;;23.57;47.35;94343.75;10345888;28;1806;-62
2023/09/21 12:01:22;;;;;;;;;;;;;;;23.56;47.14;94339.53;10325641;28;2229;-63
2023/09/21 12:06:32;;;;;;;;;;;;;;;23.56;47.18;94330.81;10359104;28;1922;-63
2023/09/21 12:11:34;;;;;;;;;;;;;;;23.55;46.69;94327.44;10343821;28;1889;-63
2023/09/21 12:16:36;;;;;;;;;;;;;;;23.55;46.93;94327.44;10370045;28;2624;-63
2023/09/21 12:21:37;;;;;;;;;;;;;;;23.55;47.00;94316.84;10372890;28;1837;-63
2023/09/21 12:26:38;;;;;;;;;;;;;;;23.56;46.68;94321.03;10364958;28;2917;-63
2023/09/21 12:31:41;;;;;;;;;;;;;;;23.56;46.74;94301.72;10364103;28;1952;-63
2023/09/21 12:36:42;;;;;;;;;;;;;;;23.57;46.82;94300.63;10353878;28;1910;-63
2023/09/21 12:41:43;;;;;;;;;;;;;;;23.57;46.45;94298.00;10365138;28;4653;-62
2023/09/21 12:46:44;;;;;;;;;;;;;;;23.56;46.31;94299.88;10363537;28;1970;-63
2023/09/21 12:51:44;;;;;;;;;;;;;;;23.57;46.15;94298.00;10371345;28;1838;-63
2023/09/21 12:56:45;;;;;;;;;;;;;;;23.57;45.80;94287.41;10353126;28;1766;-63
2023/09/21 13:01:45;;;;;;;;;;;;;;;23.56;45.97;94284.00;10352935;28;2639;-63
2023/09/21 13:06:45;;;;;;;;;;;;;;;23.57;46.02;94285.56;10370006;28;1981;-63
2023/09/21 13:11:46;;;;;;;;;;;;;;;23.59;45.80;94285.22;10372225;28;2004;-62
2023/09/21 13:16:46;;;;;;;;;;;;;;;23.62;45.80;94274.75;10361420;28;1838;-63
2023/09/21 13:21:47;;;;;;;;;;;;;;;23.63;46.12;94264.94;10367485;28;1880;-62
2023/09/21 13:26:48;;;;;;;;;;;;;;;23.63;46.11;94265.72;10356897;28;1922;-62
2023/09/21 13:31:48;;;;;;;;;;;;;;;23.63;46.12;94263.06;10341892;28;1846;-62
2023/09/21 13:36:49;;;;;;;;;;;;;;;23.62;46.18;94261.53;10339125;28;1832;-62
2023/09/21 13:41:51;;;;;;;;;;;;;;;23.65;45.91;94254.81;10342092;28;4674;-61
2023/09/21 13:46:52;;;;;;;;;;;;;;;23.65;45.85;94252.94;10328691;28;2758;-62
2023/09/21 13:51:53;;;;;;;;;;;;;;;23.67;45.74;94244.66;10333687;28;2027;-62
2023/09/21 13:56:53;;;;;;;;;;;;;;;23.68;45.80;94238.28;10323926;28;1884;-62
2023/09/21 14:01:53;;;;;;;;;;;;;;;23.67;45.74;94228.78;10343439;28;1877;-62
2023/09/21 14:06:53;;;;;;;;;;;;;;;23.67;45.71;94228.78;10335407;28;2096;-62
2023/09/21 14:11:57;;;;;;;;;;;;;;;23.68;45.63;94220.53;10337232;28;1884;-62
2023/09/21 14:16:57;;;;;;;;;;;;;;;23.68;45.47;94231.09;10332916;28;1861;-62
2023/09/21 14:21:58;;;;;;;;;;;;;;;23.68;45.63;94225.06;10339540;28;1821;-62
2023/09/21 14:26:58;;;;;;;;;;;;;;;23.68;45.62;94219.78;10342715;28;1971;-63
2023/09/21 14:31:59;;;;;;;;;;;;;;;23.67;45.54;94213.72;10317384;28;2683;-62
2023/09/21 14:37:00;;;;;;;;;;;;;;;23.66;45.77;94212.16;10337852;28;1932;-62
2023/09/21 14:42:00;;;;;;;;;;;;;;;23.67;45.48;94208.41;10344090;28;4607;-61
2023/09/21 14:47:01;;;;;;;;;;;;;;;23.67;45.56;94194.41;10342692;28;3180;-61
2023/09/21 14:52:03;;;;;;;;;;;;;;;23.68;45.91;94199.34;10342974;28;1980;-62
2023/09/21 14:57:04;;;;;;;;;;;;;;;23.67;45.64;94197.84;10342205;28;1865;-62
2023/09/21 15:02:05;;;;;;;;;;;;;;;23.70;45.80;94191.13;10327587;28;1879;-61
2023/09/21 15:07:07;;;;;;;;;;;;;;;23.69;45.97;94178.97;10331597;28;2054;-62
2023/09/21 15:12:07;;;;;;;;;;;;;;;23.70;45.78;94170.69;10336125;28;2341;-63
2023/09/21 15:17:10;;;;;;;;;;;;;;;23.70;46.08;94170.69;10329286;28;2694;-63
2023/09/21 15:22:11;;;;;;;;;;;;;;;23.70;45.96;94167.31;10335285;28;1872;-63
2023/09/21 15:27:13;;;;;;;;;;;;;;;23.70;45.96;94160.13;10347148;28;1960;-63
2023/09/21 15:32:14;;;;;;;;;;;;;;;23.70;45.99;94149.53;10339432;28;1940;-62
2023/09/21 15:37:14;;;;;;;;;;;;;;;23.67;46.03;94150.22;10347080;28;1908;-62
2023/09/21 15:42:15;;;;;;;;;;;;;;;23.69;45.90;94145.38;10356975;28;1958;-62
2023/09/21 15:47:15;;;;;;;;;;;;;;;23.70;46.01;94154.81;10319012;28;1965;-63
2023/09/21 15:52:15;;;;;;;;;;;;;;;23.70;45.81;94154.06;10334484;28;2081;-62
2023/09/21 15:57:16;;;;;;;;;;;;;;;23.70;45.87;94157.47;10343787;28;1985;-62
2023/09/21 16:02:16;;;;;;;;;;;;;;;23.71;45.95;94150.31;10338741;28;2703;-61
2023/09/21 16:07:16;;;;;;;;;;;;;;;23.69;45.95;94157.81;10338066;28;1910;-62
2023/09/21 16:12:17;;;;;;;;;;;;;;;23.68;46.14;94151.75;10342917;28;1873;-62
2023/09/21 16:17:17;;;;;;;;;;;;;;;23.67;45.88;94155.50;10335624;28;1936;-61
2023/09/21 16:22:19;;;;;;;;;;;;;;;23.67;45.89;94152.84;10334167;28;2054;-62
2023/09/21 16:27:19;;;;;;;;;;;;;;;23.65;45.85;94149.78;10320126;28;2086;-61
2023/09/21 16:32:19;;;;;;;;;;;;;;;23.65;46.20;94147.13;10318796;28;1822;-62
2023/09/21 16:37:20;;;;;;;;;;;;;;;23.66;46.19;94145.25;10320714;28;1855;-62
2023/09/21 16:42:20;;;;;;;;;;;;;;;23.65;46.08;94138.41;10334857;28;4574;-62
2023/09/21 16:47:20;;;;;;;;;;;;;;;23.65;46.14;94146.34;10334839;28;1914;-62
2023/09/21 16:52:33;;;;;;;;;;;;;;;23.64;45.88;94153.50;10334036;28;1900;-69
2023/09/21 16:57:33;;;;;;;;;;;;;;;23.64;46.17;94156.16;10337702;28;1975;-62
2023/09/21 17:02:38;;;;;;;;;;;;;;;23.64;46.29;94158.03;10339632;28;2717;-62
2023/09/21 17:07:39;;;;;;;;;;;;;;;23.63;46.30;94144.03;10338307;28;1965;-62
2023/09/21 17:12:39;;;;;;;;;;;;;;;23.63;46.35;94133.47;10338663;28;1826;-62
2023/09/21 17:17:40;;;;;;;;;;;;;;;23.63;46.42;94146.69;10322191;28;1858;-62
2023/09/21 17:22:41;;;;;;;;;;;;;;;23.63;46.51;94138.75;10337418;28;1929;-63
2023/09/21 17:27:44;;;;;;;;;;;;;;;23.64;46.45;94150.13;10331233;28;1985;-63
2023/09/21 17:32:44;;;;;;;;;;;;;;;23.64;46.65;94150.88;10339894;28;1864;-64
2023/09/21 17:37:47;;;;;;;;;;;;;;;23.64;46.50;94140.28;10332998;28;1877;-63
2023/09/21 17:42:48;;;;;;;;;;;;;;;23.64;46.73;94129.69;10333846;28;4695;-62
2023/09/21 17:47:49;;;;;;;;;;;;;;;23.65;46.65;94119.91;10340444;28;2974;-63
2023/09/21 17:52:50;;;;;;;;;;;;;;;23.64;46.89;94127.06;10334052;28;2058;-63
2023/09/21 17:57:50;;;;;;;;;;;;;;;23.65;46.88;94130.47;10344662;28;2093;-63
2023/09/21 18:02:51;;;;;;;;;;;;;;;23.65;47.05;94125.97;10351391;28;1970;-63
2023/09/21 18:07:51;;;;;;;;;;;;;;;23.66;47.13;94135.44;10325461;28;1910;-63
2023/09/21 18:12:51;;;;;;;;;;;;;;;23.66;47.37;94138.06;10346618;28;1959;-63
2023/09/21 18:17:52;;;;;;;;;;;;;;;23.67;47.30;94144.94;10338619;28;1822;-64
2023/09/21 18:22:52;;;;;;;;;;;;;;;23.67;47.65;94142.28;10347542;28;1915;-63
2023/09/21 18:27:54;;;;;;;;;;;;;;;23.66;47.44;94138.06;10351827;28;1971;-63
2023/09/21 18:32:54;;;;;;;;;;;;;;;23.66;47.28;94124.09;10341220;28;2700;-63
2023/09/21 18:37:55;;;;;;;;;;;;;;;23.66;47.11;94127.50;10347820;28;1860;-63
2023/09/21 18:42:56;;;;;;;;;;;;;;;23.65;47.50;94130.47;10346989;28;4636;-66
2023/09/21 18:47:56;;;;;;;;;;;;;;;23.65;47.73;94136.53;10341000;28;2042;-63
2023/09/21 18:52:59;;;;;;;;;;;;;;;23.67;47.72;94129.06;10332385;28;1899;-63
2023/09/21 18:58:00;;;;;;;;;;;;;;;23.67;47.70;94125.63;10335961;28;1945;-65
2023/09/21 19:03:00;;;;;;;;;;;;;;;23.65;47.72;94128.63;10336704;28;1954;-64
2023/09/21 19:08:01;;;;;;;;;;;;;;;23.67;47.59;94136.22;10341600;28;1978;-63
2023/09/21 19:13:01;;;;;;;;;;;;;;;23.68;47.94;94137.75;10327053;28;2075;-63
2023/09/21 19:18:01;;;;;;;;;;;;;;;23.67;48.00;94131.69;10324486;28;2704;-63
2023/09/21 19:23:02;;;;;;;;;;;;;;;23.67;47.88;94126.41;10349999;28;2132;-63
2023/09/21 19:28:02;;;;;;;;;;;;;;;23.65;47.96;94118.03;10323531;28;1958;-63
2023/09/21 19:33:02;;;;;;;;;;;;;;;23.67;48.01;94122.97;10340101;28;2010;-64
2023/09/21 19:38:03;;;;;;;;;;;;;;;23.65;48.01;94110.09;10343284;28;2274;-63
2023/09/21 19:43:03;;;;;;;;;;;;;;;23.66;47.80;94106.34;10339757;28;4660;-63
2023/09/21 19:48:04;;;;;;;;;;;;;;;23.65;47.80;94093.44;10344826;28;2007;-63
2023/09/21 19:53:04;;;;;;;;;;;;;;;23.64;47.59;94094.56;10341668;28;1888;-63
2023/09/21 19:58:07;;;;;;;;;;;;;;;23.61;47.42;94087.28;10331295;28;1900;-63
2023/09/21 20:03:12;;;;;;;;;;;;;;;23.61;47.00;94097.84;10340751;28;2686;-63
2023/09/21 20:08:12;;;;;;;;;;;;;;;23.59;47.26;94095.56;10347314;28;1978;-63
2023/09/21 20:13:12;;;;;;;;;;;;;;;23.59;47.06;94084.19;10321741;28;1976;-63
2023/09/21 20:18:12;;;;;;;;;;;;;;;23.57;46.83;94094.34;10343078;28;1931;-63
2023/09/21 20:23:13;;;;;;;;;;;;;;;23.56;46.77;94098.84;10354420;28;1902;-63
2023/09/21 20:28:13;;;;;;;;;;;;;;;23.55;46.40;94104.47;10344789;28;1980;-65
2023/09/21 20:33:13;;;;;;;;;;;;;;;23.53;46.16;94102.16;10358098;28;1900;-63
2023/09/21 20:38:13;;;;;;;;;;;;;;;23.52;46.08;94103.25;10340908;28;1918;-62
2023/09/21 20:43:14;;;;;;;;;;;;;;;23.51;46.18;94119.47;10344528;28;4569;-63
2023/09/21 20:48:16;;;;;;;;;;;;;;;23.50;45.83;94117.91;10325647;28;2698;-63
2023/09/21 20:53:17;;;;;;;;;;;;;;;23.48;45.99;94114.81;10344233;28;1921;-63
2023/09/21 20:58:17;;;;;;;;;;;;;;;23.50;45.98;94123.19;10333284;28;2041;-63
2023/09/21 21:03:17;;;;;;;;;;;;;;;23.48;46.14;94128.03;10339070;28;1954;-63
2023/09/21 21:08:17;;;;;;;;;;;;;;;23.45;45.56;94151.41;10348716;28;1985;-63
2023/09/21 21:13:18;;;;;;;;;;;;;;;23.43;45.11;94168.72;10358986;28;1986;-63
2023/09/21 21:18:18;;;;;;;;;;;;;;;23.40;44.97;94195.81;10346407;28;1864;-63
2023/09/21 21:23:18;;;;;;;;;;;;;;;23.37;44.70;94209.66;10359238;28;1923;-63
2023/09/21 21:28:18;;;;;;;;;;;;;;;23.32;44.63;94204.59;10348833;28;1910;-63
2023/09/21 21:33:19;;;;;;;;;;;;;;;23.31;44.54;94205.66;10349857;28;3260;-63
2023/09/21 21:38:19;;;;;;;;;;;;;;;23.29;44.26;94219.22;10348270;28;2017;-63
2023/09/21 21:43:19;;;;;;;;;;;;;;;23.28;44.81;94211.63;10343602;28;4516;-63
2023/09/21 21:48:20;;;;;;;;;;;;;;;23.26;44.73;94227.81;10347745;28;1962;-62
2023/09/21 21:53:20;;;;;;;;;;;;;;;23.27;44.61;94244.44;10342847;28;1873;-62
2023/09/21 21:58:20;;;;;;;;;;;;;;;23.26;44.83;94267.47;10335317;28;1918;-63
2023/09/21 22:03:20;;;;;;;;;;;;;;;23.26;45.20;94272.75;10331564;28;1923;-62
2023/09/21 22:08:21;;;;;;;;;;;;;;;23.27;45.42;94287.50;10344765;28;1921;-63
2023/09/21 22:13:21;;;;;;;;;;;;;;;23.26;45.54;94303.72;10340811;28;1821;-62
2023/09/21 22:18:22;;;;;;;;;;;;;;;23.27;45.97;94311.31;10335292;28;2734;-62
2023/09/21 22:23:22;;;;;;;;;;;;;;;23.25;46.19;94310.84;10330545;28;2010;-62
2023/09/21 22:28:22;;;;;;;;;;;;;;;23.27;46.62;94329.03;10350004;28;1924;-62
2023/09/21 22:33:23;;;;;;;;;;;;;;;23.28;46.81;94351.75;10324297;28;1899;-63
2023/09/21 22:38:25;;;;;;;;;;;;;;;23.25;46.73;94357.66;10341098;28;2070;-63
2023/09/21 22:43:26;;;;;;;;;;;;;;;23.27;47.07;94405.69;10349673;28;4660;-62
2023/09/21 22:48:26;;;;;;;;;;;;;;;23.25;47.32;94411.31;10340251;28;2014;-62
2023/09/21 22:53:28;;;;;;;;;;;;;;;23.28;47.51;94423.91;10347184;28;2073;-62
2023/09/21 22:58:30;;;;;;;;;;;;;;;23.31;48.00;94436.47;10351100;28;1925;-62
2023/09/21 23:03:30;;;;;;;;;;;;;;;23.33;48.30;94449.41;10349266;28;2614;-62
2023/09/21 23:08:31;;;;;;;;;;;;;;;23.35;48.13;94468.34;10339381;28;1902;-62
2023/09/21 23:13:31;;;;;;;;;;;;;;;23.36;48.32;94489.22;10341188;28;1903;-62
2023/09/21 23:18:31;;;;;;;;;;;;;;;23.37;48.43;94484.69;10343551;28;1873;-62
2023/09/21 23:23:31;;;;;;;;;;;;;;;23.38;48.46;94496.81;10344852;28;1872;-62
2023/09/21 23:28:32;;;;;;;;;;;;;;;23.38;48.62;94502.88;10346650;28;1910;-62
2023/09/21 23:33:33;;;;;;;;;;;;;;;23.38;48.79;94515.31;10347980;28;1884;-62
2023/09/21 23:38:33;;;;;;;;;;;;;;;23.36;48.81;94528.09;10345884;28;1968;-63
2023/09/21 23:43:33;;;;;;;;;;;;;;;23.33;48.70;94547.22;10343739;28;4600;-63
2023/09/21 23:48:35;;;;;;;;;;;;;;;23.33;48.78;94552.53;10345130;28;2770;-62
2023/09/21 23:53:36;;;;;;;;;;;;;;;23.31;48.70;94560.75;10342506;28;1945;-62
2023/09/21 23:58:36;;;;;;;;;;;;;;;23.25;49.18;94563.88;10345667;28;1966;-62
